Time;durP1;ratioP1;P1;durP2;ratioP2;P2;SDS_P1;SDS_P2;PMS_P1;PMS_P2;Temp;Humidity;BMP_temperature;BMP_pressure;BME280_temperature;BME280_humidity;BME280_pressure;Samples;Min_cycle;Max_cycle;Signal;HPM_P1;HPM_P2
2022/12/02 00:00:20;;;;;;;14.53;13.03;;;;;;;7.82;100.00;99944.16;5091986;28;20625;-69
2022/12/02 00:02:47;;;;;;;14.27;12.77;;;;;;;7.86;100.00;99953.41;5092361;28;20257;-69
2022/12/02 00:05:29;;;;;;;13.47;12.03;;;;;;;7.86;100.00;99956.06;5092319;28;20252;-70
2022/12/02 00:07:58;;;;;;;11.20;10.27;;;;;;;7.85;100.00;99959.69;5081729;28;20558;-70
2022/12/02 00:10:28;;;;;;;11.17;10.17;;;;;;;7.77;100.00;99951.78;5071957;28;20279;-70
2022/12/02 00:12:56;;;;;;;12.10;11.07;;;;;;;7.78;100.00;99948.13;5071781;28;20752;-70
2022/12/02 00:15:40;;;;;;;22.40;15.17;;;;;;;7.81;100.00;99955.72;5071939;28;20198;-70
2022/12/02 00:18:08;;;;;;;14.03;12.53;;;;;;;7.78;100.00;99953.41;5071900;28;20284;-70
2022/12/02 00:20:35;;;;;;;19.37;13.53;;;;;;;7.72;100.00;99954.09;5071908;28;20195;-70
2022/12/02 00:23:01;;;;;;;19.37;14.33;;;;;;;7.74;100.00;99962.66;5072046;28;20196;-71
2022/12/02 00:25:28;;;;;;;17.73;14.37;;;;;;;7.76;100.00;99960.69;5072189;28;20250;-71
2022/12/02 00:27:55;;;;;;;22.47;16.57;;;;;;;7.74;100.00;99957.38;5071562;28;20772;-70
2022/12/02 00:30:22;;;;;;;20.10;14.63;;;;;;;7.73;100.00;99961.88;5080264;28;20256;-68
2022/12/02 00:32:50;;;;;;;22.63;16.10;;;;;;;7.71;100.00;99963.84;5092122;28;20191;-70
2022/12/02 00:35:17;;;;;;;19.93;15.53;;;;;;;7.74;100.00;99962.66;5091669;28;20647;-70
2022/12/02 00:37:43;;;;;;;26.30;18.33;;;;;;;7.78;100.00;99959.53;5091940;28;20679;-69
2022/12/02 00:40:12;;;;;;;22.23;14.97;;;;;;;7.78;100.00;99961.34;5093365;28;20249;-69
2022/12/02 00:42:39;;;;;;;22.57;15.87;;;;;;;7.77;100.00;99957.06;5096091;28;20191;-69
2022/12/02 00:47:53;;;;;;;25.03;17.93;;;;;;;7.81;100.00;99947.81;5096364;28;20213;-70
2022/12/02 00:50:19;;;;;;;36.00;22.13;;;;;;;7.91;100.00;99957.22;5095799;28;20191;-70
2022/12/02 00:52:46;;;;;;;40.53;23.97;;;;;;;7.75;100.00;99933.44;5095931;28;20200;-69
2022/12/02 00:55:13;;;;;;;23.43;16.23;;;;;;;7.86;100.00;99958.69;5095748;28;20187;-69
2022/12/02 00:57:40;;;;;;;21.17;16.07;;;;;;;7.86;100.00;99961.34;5095932;28;20202;-69
2022/12/02 01:00:09;;;;;;;30.87;19.47;;;;;;;7.82;100.00;99952.94;5096054;28;20187;-70
2022/12/02 01:02:36;;;;;;;27.20;17.40;;;;;;;7.83;100.00;99940.50;5095287;28;20244;-69
2022/12/02 01:05:05;;;;;;;37.50;22.87;;;;;;;7.86;100.00;99950.75;5095618;28;20584;-69
2022/12/02 01:07:32;;;;;;;35.77;21.23;;;;;;;7.83;100.00;99956.38;5087466;28;20694;-69
2022/12/02 01:09:59;;;;;;;38.90;22.93;;;;;;;7.83;100.00;99948.44;5075809;28;20196;-69
2022/12/02 01:12:26;;;;;;;42.73;24.93;;;;;;;7.79;100.00;99944.47;5075126;28;20222;-68
2022/12/02 01:14:52;;;;;;;34.23;21.57;;;;;;;7.87;100.00;99952.41;5074786;28;20200;-68
2022/12/02 01:17:19;;;;;;;33.20;20.37;;;;;;;7.87;100.00;99945.31;5074870;28;20188;-69
2022/12/02 01:19:46;;;;;;;33.67;19.33;;;;;;;7.88;100.00;99949.59;5075983;28;20192;-69
2022/12/02 01:22:14;;;;;;;28.53;19.00;;;;;;;7.91;100.00;99949.28;5074628;28;20675;-69
2022/12/02 01:24:41;;;;;;;26.43;19.07;;;;;;;7.91;100.00;99940.50;5074711;28;20200;-69
2022/12/02 01:27:07;;;;;;;28.43;17.57;;;;;;;7.91;100.00;99945.78;5074850;28;20564;-68
2022/12/02 01:29:34;;;;;;;29.87;19.33;;;;;;;7.88;100.00;99943.50;5076625;28;20288;-68
2022/12/02 01:32:01;;;;;;;30.50;18.53;;;;;;;7.89;100.00;99938.06;5095164;28;20223;-68
2022/12/02 01:34:27;;;;;;;28.37;18.83;;;;;;;7.88;100.00;99941.66;5094718;28;20221;-69
2022/12/02 01:36:54;;;;;;;27.27;18.40;;;;;;;7.87;100.00;99939.19;5094616;28;20586;-69
2022/12/02 01:39:22;;;;;;;28.47;18.73;;;;;;;7.90;100.00;99936.22;5094984;28;20195;-69
2022/12/02 01:41:49;;;;;;;25.77;18.17;;;;;;;7.88;100.00;99939.03;5094546;28;20563;-69
2022/12/02 01:44:16;;;;;;;27.57;18.33;;;;;;;7.91;100.00;99936.03;5094892;28;20296;-69
2022/12/02 01:46:43;;;;;;;29.70;19.03;;;;;;;7.87;100.00;99936.53;5094416;28;20249;-69
2022/12/02 01:49:09;;;;;;;26.47;18.30;;;;;;;7.88;100.00;99941.66;5094758;28;20646;-69
2022/12/02 01:51:36;;;;;;;28.47;18.43;;;;;;;7.86;100.00;99932.25;5094243;28;20195;-69
2022/12/02 01:54:03;;;;;;;29.53;17.83;;;;;;;7.84;100.00;99931.59;5094673;28;20195;-69
2022/12/02 01:56:31;;;;;;;25.77;17.27;;;;;;;7.86;100.00;99929.59;5094275;28;20708;-71
2022/12/02 01:58:58;;;;;;;23.00;16.53;;;;;;;7.90;100.00;99925.63;5094606;28;20255;-71
2022/12/02 02:01:26;;;;;;;29.47;20.03;;;;;;;7.95;100.00;99921.50;5094462;28;20254;-71
2022/12/02 02:03:53;;;;;;;24.37;17.53;;;;;;;7.91;100.00;99924.63;5094948;28;20199;-71
2022/12/02 02:06:20;;;;;;;23.13;17.63;;;;;;;7.93;100.00;99926.09;5094104;28;20195;-69
2022/12/02 02:08:46;;;;;;;31.67;19.50;;;;;;;7.94;100.00;99924.31;5076145;28;20301;-68
2022/12/02 02:11:13;;;;;;;22.60;16.83;;;;;;;7.94;100.00;99919.00;5073700;28;20198;-69
2022/12/02 02:13:41;;;;;;;27.00;18.17;;;;;;;7.97;100.00;99931.91;5074048;28;20196;-69
2022/12/02 02:16:08;;;;;;;25.70;18.40;;;;;;;7.96;100.00;99925.78;5073980;28;20188;-69
2022/12/02 02:18:35;;;;;;;23.53;17.33;;;;;;;7.97;100.00;99923.97;5074082;28;20227;-69
2022/12/02 02:21:02;;;;;;;23.93;17.80;;;;;;;8.01;100.00;99920.00;5073585;28;20732;-69
2022/12/02 02:23:31;;;;;;;24.70;16.93;;;;;;;7.96;100.00;99917.84;5073761;28;20257;-69
2022/12/02 02:25:59;;;;;;;24.73;17.33;;;;;;;7.97;100.00;99916.03;5074724;28;20200;-69
2022/12/02 02:28:26;;;;;;;25.57;16.83;;;;;;;7.99;100.00;99919.31;5073335;28;20286;-70
2022/12/02 02:30:56;;;;;;;24.30;17.20;;;;;;;7.94;100.00;99924.31;5086281;28;20574;-70
2022/12/02 02:33:25;;;;;;;26.70;17.43;;;;;;;7.92;100.00;99918.38;5093478;28;20252;-70
2022/12/02 02:35:52;;;;;;;25.10;18.03;;;;;;;7.93;100.00;99931.41;5094443;28;20248;-71
2022/12/02 02:38:22;;;;;;;26.00;17.20;;;;;;;7.92;100.00;99931.59;5093471;28;20252;-70
2022/12/02 02:40:51;;;;;;;24.10;17.63;;;;;;;7.79;100.00;99903.00;5093775;28;20195;-70
2022/12/02 02:43:20;;;;;;;23.57;16.47;;;;;;;7.96;100.00;99923.13;5093595;28;20252;-70
2022/12/02 02:45:48;;;;;;;26.13;17.80;;;;;;;7.97;100.00;99930.06;5093707;28;20187;-70
2022/12/02 02:48:17;;;;;;;25.73;16.67;;;;;;;7.99;100.00;99935.19;5093569;28;20224;-70
2022/12/02 02:50:45;;;;;;;26.70;16.53;;;;;;;7.98;100.00;99923.81;5094129;28;20255;-70
2022/12/02 02:53:14;;;;;;;24.10;16.60;;;;;;;7.94;100.00;99922.50;5093162;28;20252;-70
2022/12/02 02:55:41;;;;;;;25.90;17.00;;;;;;;7.98;100.00;99930.91;5093180;28;20703;-71
2022/12/02 02:58:16;;;;;;;25.23;16.83;;;;;;;7.92;100.00;99934.25;5093451;28;20195;-71
2022/12/02 03:00:46;;;;;;;25.37;16.60;;;;;;;7.81;100.00;99939.88;5093109;28;20723;-71
2022/12/02 03:03:15;;;;;;;23.50;15.80;;;;;;;7.82;100.00;99933.56;5092181;28;20269;-71
2022/12/02 03:05:42;;;;;;;23.20;16.47;;;;;;;7.79;100.00;99939.19;5093826;28;20195;-70
2022/12/02 03:08:10;;;;;;;25.47;16.87;;;;;;;7.72;100.00;99935.59;5080188;28;20265;-71
2022/12/02 03:10:37;;;;;;;23.60;15.67;;;;;;;7.75;100.00;99927.28;5072629;28;20655;-70
2022/12/02 03:13:04;;;;;;;22.90;16.40;;;;;;;7.78;100.00;99937.56;5072528;28;20196;-71
2022/12/02 03:15:32;;;;;;;24.23;16.47;;;;;;;7.70;100.00;99925.19;5072854;28;20188;-70
2022/12/02 03:17:59;;;;;;;19.97;14.83;;;;;;;7.77;100.00;99935.91;5072662;28;20236;-71
2022/12/02 03:20:26;;;;;;;27.47;16.07;;;;;;;7.78;100.00;99937.56;5072987;28;20196;-70
2022/12/02 03:22:53;;;;;;;22.97;15.80;;;;;;;7.88;100.00;99944.31;5073134;28;20194;-70
2022/12/02 03:25:20;;;;;;;21.20;15.50;;;;;;;7.88;100.00;99938.22;5072667;28;20287;-71
2022/12/02 03:27:47;;;;;;;22.90;15.97;;;;;;;7.82;100.00;99945.00;5072567;28;20192;-70
2022/12/02 03:30:14;;;;;;;21.37;15.83;;;;;;;7.80;100.00;99940.88;5079990;28;20218;-69
2022/12/02 03:32:42;;;;;;;19.80;14.53;;;;;;;7.78;100.00;99941.03;5092428;28;20241;-69
2022/12/02 03:35:09;;;;;;;23.30;14.40;;;;;;;7.79;100.00;99947.13;5092948;28;20256;-70
2022/12/02 03:37:36;;;;;;;21.10;14.37;;;;;;;7.84;100.00;99948.28;5093061;28;20195;-70
2022/12/02 03:40:03;;;;;;;18.23;15.73;;;;;;;7.90;100.00;99946.78;5092346;28;20227;-70
2022/12/02 03:42:30;;;;;;;18.10;13.57;;;;;;;7.84;100.00;99947.47;5092607;28;20643;-69
2022/12/02 03:44:57;;;;;;;18.70;13.70;;;;;;;7.81;100.00;99955.72;5093163;28;20248;-70
2022/12/02 03:47:23;;;;;;;18.33;14.03;;;;;;;7.75;100.00;99949.28;5092462;28;20195;-70
2022/12/02 03:49:53;;;;;;;20.77;15.10;;;;;;;7.73;100.00;99953.09;5092168;28;20252;-70
2022/12/02 03:52:20;;;;;;;20.37;15.33;;;;;;;7.72;100.00;99964.69;5092103;28;20191;-70
2022/12/02 03:54:47;;;;;;;18.67;13.60;;;;;;;7.66;100.00;99960.03;5092199;28;20659;-70
2022/12/02 03:57:13;;;;;;;21.50;15.43;;;;;;;7.57;100.00;99961.88;5092412;28;20195;-69
2022/12/02 03:59:40;;;;;;;16.60;13.43;;;;;;;7.55;100.00;99969.13;5092102;28;20190;-69
2022/12/02 04:02:07;;;;;;;18.67;13.40;;;;;;;7.60;100.00;99972.09;5093147;28;20199;-71
2022/12/02 04:04:34;;;;;;;16.30;13.03;;;;;;;7.63;100.00;99966.47;5091806;28;20199;-68
2022/12/02 04:07:03;;;;;;;16.53;14.00;;;;;;;7.68;100.00;99964.16;5089017;28;20184;-69
2022/12/02 04:09:29;;;;;;;15.07;12.30;;;;;;;7.73;100.00;99964.50;5071692;28;20265;-71
2022/12/02 04:11:56;;;;;;;16.50;12.87;;;;;;;7.75;100.00;99970.44;5071798;28;20621;-71
2022/12/02 04:14:23;;;;;;;18.00;13.17;;;;;;;7.75;100.00;99975.72;5072188;28;20204;-69
2022/12/02 04:16:49;;;;;;;15.97;12.93;;;;;;;7.72;100.00;99980.53;5072085;28;20199;-69
2022/12/02 04:19:16;;;;;;;18.43;12.87;;;;;;;7.73;100.00;99976.91;5072039;28;20231;-69
2022/12/02 04:21:42;;;;;;;17.80;12.37;;;;;;;7.79;100.00;99981.50;5072829;28;20188;-69
2022/12/02 04:24:11;;;;;;;19.40;13.47;;;;;;;7.74;100.00;99976.72;5071627;28;20256;-69
2022/12/02 04:26:37;;;;;;;19.27;12.57;;;;;;;7.68;100.00;99979.22;5083146;28;20244;-68
2022/12/02 04:29:04;;;;;;;23.07;13.57;;;;;;;7.67;100.00;99977.56;5091663;28;20702;-71
2022/12/02 04:31:31;;;;;;;19.50;13.47;;;;;;;7.64;100.00;99983.97;5073592;28;20625;-70
2022/12/02 04:33:57;;;;;;;21.87;14.30;;;;;;;7.62;100.00;99985.16;5071807;28;20191;-73
2022/12/02 04:36:24;;;;;;;24.20;14.23;;;;;;;7.61;100.00;99988.78;5071649;28;20253;-77
2022/12/02 04:38:51;;;;;;;19.67;14.03;;;;;;;7.61;100.00;99984.34;5071743;28;20627;-74
2022/12/02 04:41:19;;;;;;;22.13;14.67;;;;;;;7.64;100.00;99989.28;5072676;28;20195;-73
2022/12/02 04:43:45;;;;;;;19.07;13.30;;;;;;;7.72;100.00;99999.84;5071808;28;20606;-74
2022/12/02 04:46:12;;;;;;;19.63;13.00;;;;;;;7.84;100.00;99995.06;5071726;28;20196;-75
2022/12/02 04:48:39;;;;;;;23.33;14.00;;;;;;;8.00;100.00;100000.34;5071325;28;20575;-72
2022/12/02 04:51:06;;;;;;;25.73;14.70;;;;;;;7.99;100.00;99990.75;5071645;28;20188;-70
2022/12/02 04:53:33;;;;;;;19.83;14.33;;;;;;;7.99;100.00;99994.22;5071275;28;20188;-70
2022/12/02 04:55:59;;;;;;;24.23;15.80;;;;;;;7.96;100.00;100004.31;5071509;28;20195;-70
2022/12/02 04:58:27;;;;;;;24.90;15.50;;;;;;;7.86;100.00;99998.38;5071085;28;20644;-71
2022/12/02 05:00:54;;;;;;;27.60;17.13;;;;;;;7.93;100.00;100012.59;5071458;28;20250;-71
2022/12/02 05:03:21;;;;;;;24.27;16.53;;;;;;;7.86;100.00;100025.66;5071865;28;20618;-70
2022/12/02 05:05:47;;;;;;;28.60;17.83;;;;;;;7.81;100.00;100035.06;5071584;28;20196;-70
2022/12/02 05:08:14;;;;;;;28.67;17.77;;;;;;;7.79;100.00;100018.53;5083885;28;20205;-71
2022/12/02 05:10:41;;;;;;;32.33;20.47;;;;;;;7.78;100.00;100027.47;5089465;28;20706;-72
2022/12/02 05:13:08;;;;;;;33.47;19.97;;;;;;;7.69;100.00;100023.16;5091235;28;20198;-71
2022/12/02 05:15:36;;;;;;;28.97;18.87;;;;;;;7.68;100.00;100024.97;5073248;28;20193;-71
2022/12/02 05:18:04;;;;;;;31.77;21.13;;;;;;;7.62;100.00;100019.50;5091524;28;20276;-71
2022/12/02 05:20:30;;;;;;;33.30;20.27;;;;;;;7.67;100.00;100033.09;5091504;28;20256;-71
2022/12/02 05:22:57;;;;;;;40.00;25.97;;;;;;;7.68;100.00;100026.81;5091318;28;20200;-71
2022/12/02 05:25:24;;;;;;;37.90;22.13;;;;;;;7.71;100.00;100022.00;5091164;28;20640;-72
2022/12/02 05:27:50;;;;;;;30.37;19.07;;;;;;;7.74;100.00;100026.13;5095275;28;20252;-70
2022/12/02 05:30:17;;;;;;;29.57;18.83;;;;;;;7.75;100.00;100014.56;5087150;28;20273;-70
2022/12/02 05:32:45;;;;;;;27.00;17.17;;;;;;;7.79;100.00;100018.53;5074818;28;20200;-70
2022/12/02 05:35:12;;;;;;;27.37;18.00;;;;;;;7.77;100.00;100020.53;5074653;28;20195;-69
2022/12/02 05:37:39;;;;;;;31.73;19.23;;;;;;;7.81;100.00;100021.84;5074010;28;20200;-70
2022/12/02 05:40:07;;;;;;;30.70;18.13;;;;;;;7.83;100.00;100030.41;5074104;28;20269;-71
2022/12/02 05:42:34;;;;;;;27.37;17.13;;;;;;;7.79;100.00;100023.81;5093537;28;20678;-68
2022/12/02 05:45:06;;;;;;;26.60;17.37;;;;;;;7.82;100.00;100018.19;5094244;28;20616;-69
2022/12/02 05:47:34;;;;;;;28.73;18.53;;;;;;;7.86;100.00;100019.53;5094812;28;20233;-69
2022/12/02 05:50:06;;;;;;;28.50;17.73;;;;;;;7.90;100.00;100023.50;5094177;28;20759;-70
2022/12/02 05:52:33;;;;;;;30.13;18.60;;;;;;;7.95;100.00;100021.16;5094455;28;20643;-70
2022/12/02 05:55:07;;;;;;;29.10;18.37;;;;;;;7.99;100.00;100022.47;5092894;28;20191;-71
2022/12/02 05:57:33;;;;;;;28.97;18.30;;;;;;;7.95;100.00;100029.09;5088622;28;20256;-70
2022/12/02 06:00:13;;;;;;;29.23;18.27;;;;;;;8.03;100.00;100034.38;5093734;28;20670;-71
2022/12/02 06:02:42;;;;;;;86.80;43.53;;;;;;;8.10;100.00;100038.03;5094350;28;20187;-70
2022/12/02 06:05:17;;;;;;;93.43;48.27;;;;;;;8.16;100.00;100034.69;5093892;28;20194;-71
2022/12/02 06:07:45;;;;;;;89.43;46.53;;;;;;;8.25;100.00;100037.19;5084952;28;20250;-73
2022/12/02 06:10:21;;;;;;;52.10;29.77;;;;;;;8.31;100.00;100030.41;5073834;28;20264;-69
2022/12/02 06:12:48;;;;;;;76.90;42.57;;;;;;;8.46;100.00;100039.31;5073940;28;20191;-71
2022/12/02 06:15:15;;;;;;;66.80;40.27;;;;;;;8.49;100.00;100039.00;5073440;28;20577;-69
2022/12/02 06:17:42;;;;;;;63.37;36.60;;;;;;;8.56;100.00;100039.94;5074443;28;20278;-70
2022/12/02 06:20:15;;;;;;;54.23;33.03;;;;;;;8.62;100.00;100049.88;5073497;28;20196;-69
2022/12/02 06:22:43;;;;;;;50.30;29.70;;;;;;;8.63;100.00;100054.16;5074272;28;20196;-71
2022/12/02 06:25:23;;;;;;;46.70;28.57;;;;;;;8.56;100.00;100035.50;5073670;28;20196;-70
2022/12/02 06:27:51;;;;;;;32.67;22.93;;;;;;;8.67;100.00;100052.84;5076039;28;20219;-70
2022/12/02 06:30:18;;;;;;;37.47;24.43;;;;;;;8.71;100.00;100046.22;5085613;28;20340;-70
2022/12/02 06:32:53;;;;;;;44.77;27.07;;;;;;;8.70;100.00;100044.56;5073718;28;20250;-73
2022/12/02 06:35:24;;;;;;;45.60;28.17;;;;;;;8.76;100.00;100054.47;5084856;28;20658;-71
2022/12/02 06:37:55;;;;;;;38.07;26.70;;;;;;;8.73;100.00;100036.25;5092424;28;20537;-72
2022/12/02 06:40:25;;;;;;;34.33;22.80;;;;;;;8.87;100.00;100064.69;5093398;28;20256;-71
2022/12/02 06:42:51;;;;;;;32.13;21.03;;;;;;;8.85;99.91;100066.66;5074787;28;20627;-72
2022/12/02 06:45:23;;;;;;;31.80;21.53;;;;;;;8.81;99.86;100066.19;5073676;28;20188;-72
2022/12/02 06:48:01;;;;;;;38.77;23.50;;;;;;;8.77;98.96;100064.06;5073954;28;20567;-69
2022/12/02 06:50:32;;;;;;;105.67;51.83;;;;;;;8.76;98.77;100071.19;5072717;28;20265;-69
2022/12/02 06:53:22;;;;;;;56.10;28.97;;;;;;;8.75;99.41;100066.06;5073863;28;20604;-69
2022/12/02 06:55:52;;;;;;;41.97;25.93;;;;;;;8.71;99.57;100070.03;5072064;28;20184;-69
2022/12/02 06:58:33;;;;;;;34.83;20.67;;;;;;;8.65;99.70;100076.84;5073107;28;20188;-68
2022/12/02 07:01:15;;;;;;;33.03;20.60;;;;;;;8.61;99.74;100075.53;5073120;28;20196;-68
2022/12/02 07:03:46;;;;;;;28.80;18.33;;;;;;;8.58;99.29;100067.09;5073725;28;20246;-68
2022/12/02 07:06:18;;;;;;;27.27;19.17;;;;;;;8.59;99.73;100077.53;5073436;28;20188;-68
2022/12/02 07:08:47;;;;;;;31.10;19.90;;;;;;;8.60;99.73;100084.47;5090410;28;20191;-68
2022/12/02 07:11:48;;;;;;;41.87;28.20;;;;;;;8.55;99.65;100091.25;5093164;28;20219;-69
2022/12/02 07:14:14;;;;;;;29.47;20.30;;;;;;;8.56;100.00;100087.59;5092703;28;20273;-69
2022/12/02 07:16:41;;;;;;;32.10;22.67;;;;;;;8.64;100.00;100088.44;5092809;28;20240;-69
2022/12/02 07:19:14;;;;;;;31.30;21.63;;;;;;;8.71;100.00;100093.88;5093128;28;20223;-69
2022/12/02 07:21:41;;;;;;;34.50;22.70;;;;;;;8.73;100.00;100095.34;5093157;28;20188;-69
2022/12/02 07:24:13;;;;;;;29.23;20.57;;;;;;;8.60;99.56;100083.63;5093039;28;20245;-70
2022/12/02 07:26:40;;;;;;;34.07;21.30;;;;;;;8.61;99.86;100091.41;5092708;28;20658;-69
2022/12/02 07:29:13;;;;;;;32.53;21.43;;;;;;;8.67;99.66;100089.91;5093623;28;20191;-69
2022/12/02 07:31:43;;;;;;;35.43;20.57;;;;;;;8.74;100.00;100091.69;5073314;28;20180;-69
2022/12/02 07:34:10;;;;;;;39.00;24.70;;;;;;;8.77;100.00;100086.06;5072596;28;20278;-69
2022/12/02 07:36:36;;;;;;;40.73;25.07;;;;;;;8.77;99.38;100080.78;5072105;28;20224;-69
2022/12/02 07:39:03;;;;;;;37.67;23.77;;;;;;;8.76;99.56;100097.66;5072170;28;20289;-70
2022/12/02 07:41:31;;;;;;;43.23;29.43;;;;;;;8.92;100.00;100088.84;5072025;28;20192;-69
2022/12/02 07:43:58;;;;;;;50.87;30.90;;;;;;;9.07;100.00;100089.78;5072869;28;20199;-69
2022/12/02 07:46:25;;;;;;;41.60;26.27;;;;;;;9.25;100.00;100090.38;5072240;28;20250;-69
2022/12/02 07:48:51;;;;;;;24.50;16.60;;;;;;;9.32;99.67;100086.84;5071642;28;20192;-70
2022/12/02 07:51:18;;;;;;;27.10;18.87;;;;;;;9.41;98.45;100095.59;5072088;28;20215;-70
2022/12/02 07:53:45;;;;;;;36.33;21.73;;;;;;;9.62;98.27;100093.97;5072329;28;20249;-70
2022/12/02 07:56:11;;;;;;;25.90;15.07;;;;;;;9.72;95.58;100089.25;5071791;28;20188;-70
2022/12/02 07:58:39;;;;;;;24.63;15.40;;;;;;;9.82;93.30;100100.47;5071763;28;20190;-70
2022/12/02 08:01:06;;;;;;;22.57;14.67;;;;;;;9.81;92.25;100108.63;5072127;28;20204;-70
2022/12/02 08:03:33;;;;;;;20.87;14.17;;;;;;;9.94;92.93;100108.84;5072129;28;20231;-70
2022/12/02 08:06:00;;;;;;;19.47;13.47;;;;;;;10.03;91.94;100107.78;5072121;28;20191;-70
2022/12/02 08:08:26;;;;;;;14.37;11.50;;;;;;;10.05;91.85;100103.97;5086990;28;20191;-71
2022/12/02 08:10:53;;;;;;;14.40;10.93;;;;;;;9.99;90.81;100096.69;5092429;28;20283;-69
2022/12/02 08:13:20;;;;;;;16.63;10.07;;;;;;;10.08;90.98;100116.06;5091996;28;20256;-71
2022/12/02 08:15:48;;;;;;;24.97;12.77;;;;;;;10.15;89.37;100115.19;5091618;28;20727;-71
2022/12/02 08:18:14;;;;;;;19.77;11.77;;;;;;;10.25;90.13;100112.28;5079970;28;20281;-71
2022/12/02 08:20:41;;;;;;;77.30;21.93;;;;;;;10.41;89.68;100118.28;5071926;28;20261;-71
2022/12/02 08:23:08;;;;;;;42.77;15.80;;;;;;;10.56;88.97;100115.66;5072023;28;20249;-72
2022/12/02 08:25:34;;;;;;;33.10;14.20;;;;;;;10.71;88.76;100105.88;5071926;28;20191;-71
2022/12/02 08:28:01;;;;;;;19.90;12.80;;;;;;;10.82;87.45;100113.38;5071866;28;20568;-71
2022/12/02 08:30:28;;;;;;;62.27;24.40;;;;;;;10.89;87.12;100111.66;5080877;28;20276;-71
2022/12/02 08:32:56;;;;;;;24.90;14.07;;;;;;;11.07;87.04;100114.78;5080336;28;20253;-69
2022/12/02 08:35:23;;;;;;;13.60;10.73;;;;;;;11.04;86.61;100115.16;5071895;28;20192;-69
2022/12/02 08:37:50;;;;;;;12.20;9.73;;;;;;;11.12;84.54;100125.69;5071859;28;20253;-69
2022/12/02 08:40:16;;;;;;;11.20;9.90;;;;;;;11.08;85.66;100121.75;5071568;28;20200;-69
2022/12/02 08:42:43;;;;;;;10.93;9.83;;;;;;;11.13;86.31;100127.34;5071796;28;20552;-70
2022/12/02 08:45:10;;;;;;;13.43;9.50;;;;;;;11.20;87.56;100125.59;5071587;28;20279;-68
2022/12/02 08:47:37;;;;;;;9.47;8.07;;;;;;;11.17;85.04;100131.28;5071702;28;20218;-68
2022/12/02 08:50:07;;;;;;;10.27;8.40;;;;;;;11.22;85.56;100133.41;5071919;28;20272;-71
2022/12/02 08:52:33;;;;;;;11.03;8.67;;;;;;;11.34;87.72;100137.19;5071671;28;20253;-70
2022/12/02 08:55:00;;;;;;;8.00;7.30;;;;;;;11.31;84.00;100137.59;5071305;28;20219;-68
2022/12/02 08:57:27;;;;;;;10.17;8.63;;;;;;;11.31;84.64;100133.09;5071290;28;20192;-71
2022/12/02 08:59:53;;;;;;;10.50;8.37;;;;;;;11.35;85.05;100137.03;5071870;28;20545;-70
2022/12/02 09:02:20;;;;;;;9.07;8.17;;;;;;;11.45;84.34;100129.59;5074685;28;20188;-69
2022/12/02 09:04:47;;;;;;;8.53;7.73;;;;;;;11.58;84.78;100118.28;5075877;28;20195;-69
2022/12/02 09:07:15;;;;;;;12.20;8.27;;;;;;;11.93;83.33;100130.78;5075204;28;20195;-69
2022/12/02 09:09:42;;;;;;;8.60;7.83;;;;;;;12.07;81.31;100133.41;5075795;28;20230;-69
2022/12/02 09:12:09;;;;;;;9.40;8.47;;;;;;;12.17;80.79;100133.09;5075076;28;20232;-70
2022/12/02 09:14:35;;;;;;;10.87;9.43;;;;;;;12.40;80.74;100134.53;5075130;28;20280;-71
2022/12/02 09:17:02;;;;;;;9.20;8.20;;;;;;;12.55;79.84;100121.94;5075216;28;20194;-72
2022/12/02 09:19:29;;;;;;;10.17;8.37;;;;;;;12.83;79.29;100138.75;5093712;28;20228;-71
2022/12/02 09:21:55;;;;;;;9.13;8.23;;;;;;;12.99;76.93;100137.66;5095508;28;20609;-71
2022/12/02 09:24:24;;;;;;;8.50;7.67;;;;;;;13.02;75.85;100138.09;5095376;28;20189;-71
2022/12/02 09:26:50;;;;;;;8.40;7.60;;;;;;;13.10;77.07;100135.28;5095133;28;20699;-68
2022/12/02 09:29:17;;;;;;;11.33;8.13;;;;;;;13.05;74.60;100131.53;5095409;28;20210;-68
2022/12/02 09:31:44;;;;;;;8.70;7.43;;;;;;;12.68;76.27;100103.38;5074585;28;20248;-71
2022/12/02 09:34:11;;;;;;;8.80;7.90;;;;;;;13.13;76.61;100124.22;5073426;28;20201;-70
2022/12/02 09:36:37;;;;;;;9.67;7.73;;;;;;;13.37;75.44;100131.72;5074649;28;20331;-68
2022/12/02 09:39:04;;;;;;;8.57;7.83;;;;;;;13.62;73.67;100134.69;5075115;28;20276;-69
2022/12/02 09:41:32;;;;;;;8.20;7.47;;;;;;;13.73;75.11;100126.91;5074413;28;20232;-70
2022/12/02 09:43:59;;;;;;;6.70;5.03;;;;;;;13.99;71.92;100131.53;5075275;28;20194;-70
2022/12/02 09:46:26;;;;;;;7.20;6.60;;;;;;;13.81;71.13;100137.44;5074423;28;20192;-70
2022/12/02 09:48:53;;;;;;;8.57;6.63;;;;;;;13.69;71.00;100135.56;5074516;28;20620;-70
2022/12/02 09:51:20;;;;;;;7.97;6.50;;;;;;;13.71;72.66;100123.66;5074245;28;20285;-71
2022/12/02 09:53:46;;;;;;;6.53;5.93;;;;;;;13.75;72.55;100124.88;5074172;28;20332;-71
2022/12/02 09:56:16;;;;;;;7.33;6.63;;;;;;;13.76;71.95;100123.06;5074155;28;20227;-71
2022/12/02 09:58:45;;;;;;;6.43;5.93;;;;;;;13.87;73.14;100112.59;5074476;28;20276;-70
2022/12/02 10:01:13;;;;;;;3.53;3.33;;;;;;;13.78;70.91;100118.31;5074682;28;20196;-70
2022/12/02 10:03:40;;;;;;;14.10;6.70;;;;;;;13.86;71.46;100118.13;5073892;28;20214;-70
2022/12/02 10:06:12;;;;;;;4.80;4.40;;;;;;;14.09;70.60;100127.44;5074181;28;20250;-69
2022/12/02 10:08:39;;;;;;;4.17;3.77;;;;;;;14.18;69.52;100120.84;5091387;28;20191;-69
2022/12/02 10:11:06;;;;;;;4.47;4.07;;;;;;;14.25;66.99;100127.06;5095142;28;20229;-69
2022/12/02 10:13:38;;;;;;;4.30;4.00;;;;;;;14.37;68.10;100125.44;5094354;28;20191;-69
2022/12/02 10:16:11;;;;;;;4.27;3.97;;;;;;;14.18;69.66;100126.19;5094448;28;20275;-69
2022/12/02 10:18:37;;;;;;;4.00;3.77;;;;;;;14.12;70.10;100119.00;5093794;28;20238;-69
2022/12/02 10:21:04;;;;;;;3.87;3.57;;;;;;;14.11;69.53;100120.06;5094271;28;20194;-70
2022/12/02 10:23:31;;;;;;;4.43;4.13;;;;;;;14.01;67.94;100124.94;5093691;28;20252;-69
2022/12/02 10:26:11;;;;;;;4.27;3.93;;;;;;;13.86;69.11;100121.66;5093682;28;20199;-69
2022/12/02 10:28:39;;;;;;;4.93;4.47;;;;;;;13.55;69.46;100118.66;5094151;28;20250;-70
2022/12/02 10:31:11;;;;;;;4.33;4.00;;;;;;;13.50;70.13;100105.09;5078992;28;20276;-70
2022/12/02 10:33:40;;;;;;;6.13;4.30;;;;;;;13.53;68.62;100112.72;5073352;28;20191;-70
2022/12/02 10:36:07;;;;;;;7.87;5.47;;;;;;;13.48;70.64;100099.13;5073878;28;20269;-70
2022/12/02 10:38:37;;;;;;;7.00;4.60;;;;;;;13.43;70.41;100104.25;5073483;28;20550;-70
2022/12/02 10:41:18;;;;;;;5.37;4.80;;;;;;;13.28;70.90;100106.22;5073501;28;20279;-70
2022/12/02 10:44:02;;;;;;;9.67;5.10;;;;;;;13.21;70.69;100108.03;5073796;28;20191;-70
2022/12/02 10:46:31;;;;;;;5.17;4.70;;;;;;;13.28;69.52;100110.75;5073206;28;20660;-70
2022/12/02 10:49:15;;;;;;;5.33;4.80;;;;;;;13.50;68.49;100105.09;5073182;28;20226;-70
2022/12/02 10:51:42;;;;;;;4.83;4.30;;;;;;;13.60;68.10;100105.53;5074128;28;20284;-70
2022/12/02 10:54:20;;;;;;;5.27;4.87;;;;;;;13.54;70.00;100095.66;5073170;28;20190;-70
2022/12/02 10:56:47;;;;;;;5.80;5.20;;;;;;;13.31;70.66;100099.69;5073523;28;20678;-70
2022/12/02 10:59:15;;;;;;;4.93;4.50;;;;;;;13.21;72.05;100092.03;5073126;28;20192;-70
2022/12/02 11:01:44;;;;;;;4.27;3.97;;;;;;;13.23;70.64;100105.19;5072834;28;20229;-70
2022/12/02 11:04:12;;;;;;;5.23;4.83;;;;;;;13.25;69.66;100108.47;5072728;28;20228;-70
2022/12/02 11:06:39;;;;;;;11.07;5.57;;;;;;;13.24;70.47;100104.97;5072778;28;20192;-70
2022/12/02 11:09:07;;;;;;;6.47;4.60;;;;;;;13.35;70.10;100106.28;5093123;28;20195;-70
2022/12/02 11:11:39;;;;;;;4.90;4.30;;;;;;;13.47;70.00;100100.16;5092730;28;20713;-70
2022/12/02 11:14:11;;;;;;;5.27;4.40;;;;;;;13.58;69.43;100101.41;5093060;28;20191;-70
2022/12/02 11:17:06;;;;;;;3.90;3.60;;;;;;;13.57;69.20;100100.59;5092816;28;20193;-73
2022/12/02 11:19:46;;;;;;;4.00;3.70;;;;;;;14.07;78.89;100084.09;5093046;28;20244;-69
2022/12/02 11:23:05;;;;;;;3.77;3.47;;;;;;;14.17;71.92;100095.16;5093472;28;20204;-69
2022/12/02 11:26:06;;;;;;;3.93;3.47;;;;;;;14.28;68.41;100099.94;5085621;28;20204;-69